Time;durP1;ratioP1;P1;durP2;ratioP2;P2;SDS_P1;SDS_P2;PMS_P1;PMS_P2;Temp;Humidity;BMP_temperature;BMP_pressure;BME280_temperature;BME280_humidity;BME280_pressure;Samples;Min_cycle;Max_cycle;Signal;HPM_P1;HPM_P2
2024/01/30 00:01:39;;;;;;;4.50;2.30;;;3.30;92.00;;;;;;5049549;28;20055;-79
2024/01/30 00:04:05;;;;;;;6.00;2.92;;;3.20;92.10;;;;;;5050821;28;20131;-78
2024/01/30 00:06:31;;;;;;;7.47;3.05;;;3.30;91.90;;;;;;5050945;28;20501;-79
2024/01/30 00:08:57;;;;;;;4.38;2.58;;;3.30;92.00;;;;;;5049830;28;20064;-78
2024/01/30 00:11:25;;;;;;;6.03;2.70;;;3.20;92.10;;;;;;5050074;28;20033;-79
2024/01/30 00:13:51;;;;;;;6.00;2.72;;;3.10;92.20;;;;;;5048687;28;20379;-79
2024/01/30 00:16:26;;;;;;;4.97;2.40;;;3.10;92.20;;;;;;5048145;28;20028;-78
2024/01/30 00:18:52;;;;;;;4.30;2.10;;;3.30;92.10;;;;;;5047244;28;20039;-78
2024/01/30 00:21:19;;;;;;;5.38;2.40;;;3.30;92.00;;;;;;5050163;28;20037;-79
2024/01/30 00:23:44;;;;;;;3.83;2.20;;;3.30;92.00;;;;;;5047784;28;20403;-78
2024/01/30 00:26:11;;;;;;;4.07;2.10;;;3.30;92.20;;;;;;5050046;28;20036;-78
2024/01/30 00:28:37;;;;;;;4.43;2.45;;;3.10;92.30;;;;;;5049477;28;20037;-78
2024/01/30 00:31:04;;;;;;;4.15;2.22;;;3.00;92.70;;;;;;5052239;28;20459;-78
2024/01/30 00:33:29;;;;;;;5.55;2.75;;;2.80;92.90;;;;;;5051867;28;20085;-78
2024/01/30 00:35:55;;;;;;;10.70;3.03;;;2.90;92.60;;;;;;5050733;28;20044;-78
2024/01/30 00:38:21;;;;;;;5.32;2.13;;;3.10;92.40;;;;;;5052149;28;20058;-78
2024/01/30 00:40:46;;;;;;;5.25;3.03;;;3.20;92.20;;;;;;5048336;28;20457;-78
2024/01/30 00:43:12;;;;;;;5.20;2.50;;;3.40;91.90;;;;;;5050858;28;20525;-78
2024/01/30 00:45:37;;;;;;;5.68;2.63;;;3.40;91.80;;;;;;5051500;28;20040;-78
2024/01/30 00:48:04;;;;;;;5.10;2.72;;;3.40;91.90;;;;;;5051004;28;20116;-78
2024/01/30 00:50:29;;;;;;;5.63;2.60;;;3.30;92.00;;;;;;5051774;28;20040;-78
2024/01/30 00:52:55;;;;;;;5.13;2.58;;;3.30;92.20;;;;;;5053238;28;20035;-79
2024/01/30 00:55:21;;;;;;;5.68;2.53;;;3.10;92.20;;;;;;5049901;28;20171;-78
2024/01/30 00:57:47;;;;;;;4.70;2.15;;;3.00;92.30;;;;;;5053157;28;20042;-78
2024/01/30 01:00:16;;;;;;;4.63;2.30;;;3.00;92.40;;;;;;5053987;28;20390;-78
2024/01/30 01:02:42;;;;;;;5.28;2.13;;;3.00;92.40;;;;;;5051579;28;20067;-78
2024/01/30 01:05:08;;;;;;;5.88;2.58;;;3.00;92.60;;;;;;5054696;28;20127;-78
2024/01/30 01:07:34;;;;;;;5.55;2.55;;;2.80;93.30;;;;;;5053617;28;20036;-79
2024/01/30 01:09:59;;;;;;;4.30;2.25;;;2.70;93.10;;;;;;5053481;28;20056;-78
2024/01/30 01:12:25;;;;;;;5.47;2.67;;;2.60;93.10;;;;;;5053385;28;20036;-78
2024/01/30 01:14:51;;;;;;;6.22;2.80;;;2.70;93.10;;;;;;5053136;28;20032;-78
2024/01/30 01:17:18;;;;;;;4.20;2.22;;;2.80;92.90;;;;;;5054579;28;20043;-78
2024/01/30 01:19:44;;;;;;;5.28;2.60;;;2.80;92.90;;;;;;5053702;28;20770;-78
2024/01/30 01:22:09;;;;;;;6.43;2.67;;;3.00;92.70;;;;;;5054518;28;20033;-78
2024/01/30 01:24:35;;;;;;;3.88;2.40;;;3.20;92.50;;;;;;5055244;28;20036;-78
2024/01/30 01:27:01;;;;;;;4.00;2.13;;;3.10;92.70;;;;;;5052533;28;20032;-78
2024/01/30 01:29:28;;;;;;;5.43;2.55;;;3.20;92.40;;;;;;5052840;28;20093;-79
2024/01/30 01:31:57;;;;;;;5.47;2.42;;;3.20;92.30;;;;;;5053989;28;20497;-78
2024/01/30 01:34:26;;;;;;;5.32;2.58;;;3.10;92.40;;;;;;5052571;28;20101;-78
2024/01/30 01:36:55;;;;;;;5.10;2.20;;;3.20;92.40;;;;;;5052813;28;20104;-78
2024/01/30 01:39:22;;;;;;;5.00;2.38;;;3.10;92.30;;;;;;5054875;28;20036;-78
2024/01/30 01:41:48;;;;;;;4.82;2.33;;;3.20;92.30;;;;;;5052911;28;20052;-78
2024/01/30 01:44:14;;;;;;;4.53;2.13;;;3.10;92.50;;;;;;5052934;28;20446;-79
2024/01/30 01:46:40;;;;;;;6.38;2.42;;;3.10;92.30;;;;;;5048530;28;20043;-78
2024/01/30 01:49:05;;;;;;;4.60;2.50;;;3.10;92.30;;;;;;5054170;28;20064;-78
2024/01/30 01:51:34;;;;;;;5.35;2.47;;;2.80;92.60;;;;;;5053755;28;20207;-78
2024/01/30 01:54:03;;;;;;;6.40;2.60;;;2.70;92.90;;;;;;5050350;28;20460;-78
2024/01/30 01:56:30;;;;;;;3.80;2.10;;;2.90;92.80;;;;;;5048278;28;20036;-78
2024/01/30 01:58:59;;;;;;;4.03;2.15;;;2.90;92.70;;;;;;5050331;28;20112;-78
2024/01/30 02:01:27;;;;;;;4.63;2.20;;;2.90;92.80;;;;;;5053043;28;20052;-78
2024/01/30 02:03:52;;;;;;;7.35;2.50;;;2.70;93.20;;;;;;5051937;28;20083;-78
2024/01/30 02:06:19;;;;;;;5.22;2.78;;;2.50;93.70;;;;;;5054513;28;20458;-78
2024/01/30 02:08:44;;;;;;;7.78;3.00;;;2.30;93.90;;;;;;5052760;28;20139;-78
2024/01/30 02:11:11;;;;;;;6.60;2.65;;;2.20;94.20;;;;;;5052838;28;20029;-79
2024/01/30 02:13:37;;;;;;;5.53;2.45;;;2.10;94.20;;;;;;5055352;28;20163;-78
2024/01/30 02:16:02;;;;;;;5.18;2.42;;;2.10;93.90;;;;;;5057458;28;20031;-78
2024/01/30 02:18:28;;;;;;;4.40;2.35;;;2.20;93.80;;;;;;5055626;28;20094;-78
2024/01/30 02:20:57;;;;;;;5.85;2.20;;;2.40;93.70;;;;;;5057379;28;20048;-78
2024/01/30 02:23:27;;;;;;;4.55;2.28;;;2.50;93.40;;;;;;5057417;28;20032;-78
2024/01/30 02:25:52;;;;;;;4.40;2.20;;;2.60;93.30;;;;;;5057325;28;21123;-78
2024/01/30 02:28:19;;;;;;;3.78;2.22;;;2.60;93.60;;;;;;5057663;28;20401;-78
2024/01/30 02:30:45;;;;;;;4.95;2.47;;;2.40;93.90;;;;;;5054663;28;20024;-78
2024/01/30 02:33:11;;;;;;;4.10;1.98;;;2.40;93.70;;;;;;5054645;28;20556;-78
2024/01/30 02:35:37;;;;;;;5.53;2.38;;;2.50;93.60;;;;;;5057764;28;20063;-78
2024/01/30 02:38:03;;;;;;;8.32;2.63;;;2.60;93.40;;;;;;5055903;28;20482;-79
2024/01/30 02:40:29;;;;;;;4.72;2.08;;;2.70;93.30;;;;;;5056108;28;20029;-78
2024/01/30 02:42:54;;;;;;;6.53;2.60;;;2.60;93.40;;;;;;5057746;28;20445;-78
2024/01/30 02:45:20;;;;;;;5.18;2.63;;;2.60;93.30;;;;;;5055983;28;20162;-78
2024/01/30 02:47:46;;;;;;;4.82;1.92;;;2.60;93.30;;;;;;5055336;28;20031;-78
2024/01/30 02:50:12;;;;;;;6.32;2.70;;;2.60;93.30;;;;;;5057257;28;20037;-78
2024/01/30 02:52:37;;;;;;;6.22;2.13;;;2.40;93.40;;;;;;5054418;28;20028;-78
2024/01/30 02:55:03;;;;;;;4.65;2.13;;;2.30;93.70;;;;;;5056154;28;20398;-78
2024/01/30 02:57:29;;;;;;;5.07;1.80;;;2.20;94.10;;;;;;5057274;28;20060;-78
2024/01/30 02:59:55;;;;;;;5.25;2.00;;;2.30;94.00;;;;;;5054392;28;20083;-78
2024/01/30 03:02:21;;;;;;;4.72;2.35;;;2.40;93.80;;;;;;5040117;28;20680;-78
2024/01/30 03:04:47;;;;;;;5.30;2.50;;;2.30;93.80;;;;;;5053024;28;20032;-78
2024/01/30 03:07:13;;;;;;;3.17;1.90;;;2.20;94.20;;;;;;5056799;28;20144;-78
2024/01/30 03:09:41;;;;;;;4.72;2.33;;;2.20;94.30;;;;;;5055719;28;20053;-78
2024/01/30 03:12:06;;;;;;;5.95;2.80;;;2.20;94.30;;;;;;5055315;28;20123;-78
2024/01/30 03:14:32;;;;;;;5.47;2.30;;;2.10;94.20;;;;;;5056935;28;21245;-78
2024/01/30 03:16:58;;;;;;;5.75;2.75;;;2.00;94.70;;;;;;5056326;28;20037;-78
2024/01/30 03:19:24;;;;;;;3.72;1.77;;;1.90;95.00;;;;;;5055796;28;20131;-78
2024/01/30 03:21:50;;;;;;;5.45;2.30;;;2.10;94.60;;;;;;5056426;28;20041;-78
2024/01/30 03:24:17;;;;;;;4.82;2.30;;;2.30;94.00;;;;;;5050632;28;20033;-78
2024/01/30 03:26:43;;;;;;;4.00;1.95;;;2.40;93.70;;;;;;5055149;28;20036;-78
2024/01/30 03:29:09;;;;;;;5.40;2.25;;;2.60;93.50;;;;;;5054455;28;20116;-78
2024/01/30 03:31:35;;;;;;;4.80;2.20;;;2.30;93.80;;;;;;5053956;28;20470;-78
2024/01/30 03:34:01;;;;;;;5.85;2.47;;;2.00;94.50;;;;;;5055281;28;20028;-78
2024/01/30 03:36:27;;;;;;;4.95;2.03;;;1.80;94.90;;;;;;5055060;28;20544;-78
2024/01/30 03:38:52;;;;;;;5.18;1.90;;;1.80;95.00;;;;;;5053154;28;20097;-78
2024/01/30 03:41:18;;;;;;;4.68;2.17;;;1.70;95.30;;;;;;5053092;28;20099;-78
2024/01/30 03:43:44;;;;;;;4.55;2.17;;;1.80;95.00;;;;;;5054678;28;20078;-78
2024/01/30 03:46:12;;;;;;;5.32;2.20;;;2.00;94.60;;;;;;5055538;28;20029;-78
2024/01/30 03:48:38;;;;;;;5.80;1.98;;;2.10;94.60;;;;;;5050888;28;20090;-78
2024/01/30 03:51:04;;;;;;;4.95;2.20;;;2.10;94.70;;;;;;5053778;28;21353;-78
2024/01/30 03:53:30;;;;;;;4.18;2.40;;;2.10;94.60;;;;;;5055574;28;20028;-78
2024/01/30 03:55:55;;;;;;;4.45;1.95;;;2.10;94.40;;;;;;5054976;28;20033;-78
2024/01/30 03:58:21;;;;;;;4.78;2.53;;;2.10;94.30;;;;;;5052321;28;20036;-78
2024/01/30 04:00:47;;;;;;;4.15;2.20;;;2.30;94.40;;;;;;5052683;28;20116;-78
2024/01/30 04:03:14;;;;;;;5.88;2.20;;;2.40;94.10;;;;;;5051532;28;20043;-78
2024/01/30 04:05:41;;;;;;;3.50;2.05;;;2.20;94.20;;;;;;5050154;28;20547;-78
2024/01/30 04:08:07;;;;;;;5.57;2.40;;;2.10;94.50;;;;;;5050121;28;20095;-79
2024/01/30 04:10:33;;;;;;;4.95;2.30;;;2.00;94.70;;;;;;5049758;28;20037;-78
2024/01/30 04:12:59;;;;;;;5.32;2.10;;;2.00;94.80;;;;;;5048928;28;20120;-79
2024/01/30 04:15:25;;;;;;;4.22;2.22;;;2.10;94.60;;;;;;5050942;28;20346;-78
2024/01/30 04:17:51;;;;;;;4.60;2.50;;;2.10;94.60;;;;;;5047047;28;20717;-79
2024/01/30 04:20:17;;;;;;;5.35;2.17;;;2.00;94.60;;;;;;5048225;28;20032;-78
2024/01/30 04:22:44;;;;;;;5.20;2.08;;;2.00;95.10;;;;;;5045743;28;20047;-79
2024/01/30 04:25:10;;;;;;;6.38;2.40;;;1.90;95.30;;;;;;5048367;28;20037;-78
2024/01/30 04:27:36;;;;;;;6.18;2.55;;;1.80;95.50;;;;;;5052004;28;20028;-78
2024/01/30 04:30:01;;;;;;;5.60;2.40;;;1.60;95.20;;;;;;5050907;28;20378;-79
2024/01/30 04:32:27;;;;;;;7.03;2.67;;;1.50;95.50;;;;;;5050282;28;20025;-78
2024/01/30 04:34:52;;;;;;;4.45;2.13;;;1.60;95.90;;;;;;5049323;28;20058;-78
2024/01/30 04:37:18;;;;;;;5.55;2.30;;;1.30;96.30;;;;;;5043241;28;20043;-78
2024/01/30 04:39:44;;;;;;;4.50;2.40;;;1.50;96.00;;;;;;5043755;28;20101;-78
2024/01/30 04:42:09;;;;;;;5.70;2.50;;;1.70;95.60;;;;;;5049222;28;20052;-78
2024/01/30 04:44:35;;;;;;;6.80;2.50;;;1.90;95.40;;;;;;5047160;28;20043;-78
2024/01/30 04:47:01;;;;;;;4.70;2.47;;;1.90;95.20;;;;;;5047633;28;20089;-78
2024/01/30 04:49:28;;;;;;;7.18;2.58;;;1.90;95.40;;;;;;5050025;28;20135;-78
2024/01/30 04:51:54;;;;;;;5.55;2.17;;;1.80;95.40;;;;;;5050238;28;20029;-78
2024/01/30 04:54:20;;;;;;;5.00;2.15;;;1.80;95.30;;;;;;5048514;28;20033;-78
2024/01/30 04:56:45;;;;;;;7.10;2.78;;;1.80;95.60;;;;;;5047459;28;20232;-78
2024/01/30 04:59:12;;;;;;;4.70;2.40;;;1.80;95.20;;;;;;5045791;28;20090;-78
2024/01/30 05:01:37;;;;;;;4.90;2.40;;;1.70;95.20;;;;;;5047208;28;20044;-78
2024/01/30 05:04:03;;;;;;;4.75;2.63;;;1.60;95.60;;;;;;5050564;28;20086;-78
2024/01/30 05:06:29;;;;;;;5.22;2.40;;;1.60;95.50;;;;;;5031999;28;20036;-78
2024/01/30 05:08:55;;;;;;;4.18;1.95;;;1.80;95.40;;;;;;5047695;28;20597;-78
2024/01/30 05:11:21;;;;;;;6.35;2.55;;;1.90;95.10;;;;;;5048000;28;20047;-78
2024/01/30 05:13:47;;;;;;;5.38;2.58;;;1.90;95.10;;;;;;5045250;28;20039;-78
2024/01/30 05:16:13;;;;;;;6.15;2.33;;;1.80;95.40;;;;;;5047470;28;20032;-78
2024/01/30 05:18:39;;;;;;;5.63;2.30;;;1.80;95.20;;;;;;5046987;28;20044;-78
2024/01/30 05:21:05;;;;;;;8.43;2.78;;;1.90;95.10;;;;;;5045969;28;20040;-78
2024/01/30 05:23:31;;;;;;;4.95;2.40;;;1.90;95.10;;;;;;5048507;28;21372;-78
2024/01/30 05:25:57;;;;;;;5.88;2.75;;;1.80;95.20;;;;;;5050368;28;20406;-78
2024/01/30 05:28:22;;;;;;;5.70;2.65;;;1.70;95.30;;;;;;5050561;28;20111;-78
2024/01/30 05:30:48;;;;;;;6.50;3.00;;;1.60;95.30;;;;;;5048728;28;20032;-78
2024/01/30 05:33:14;;;;;;;5.28;2.63;;;1.50;95.50;;;;;;5050243;28;20042;-78
2024/01/30 05:35:39;;;;;;;5.63;2.22;;;1.60;95.60;;;;;;5044915;28;20120;-78
2024/01/30 05:38:05;;;;;;;5.32;2.60;;;1.50;95.70;;;;;;5044713;28;20425;-78
2024/01/30 05:40:31;;;;;;;5.80;2.88;;;1.40;95.80;;;;;;5047833;28;20032;-78
2024/01/30 05:43:00;;;;;;;4.40;2.25;;;1.60;95.60;;;;;;5043425;28;20045;-78
2024/01/30 05:45:26;;;;;;;8.50;2.65;;;1.70;95.50;;;;;;5046698;28;20477;-78
2024/01/30 05:47:52;;;;;;;4.93;2.47;;;1.60;95.90;;;;;;5046352;28;20039;-78
2024/01/30 05:50:19;;;;;;;6.07;2.58;;;1.50;95.90;;;;;;5047320;28;20718;-78
2024/01/30 05:52:44;;;;;;;10.65;2.10;;;1.50;95.80;;;;;;5046653;28;20529;-77
2024/01/30 05:55:11;;;;;;;6.32;2.35;;;1.50;96.00;;;;;;5046717;28;20040;-78
2024/01/30 05:57:37;;;;;;;4.97;2.05;;;1.70;95.70;;;;;;5044242;28;20029;-78
2024/01/30 06:00:05;;;;;;;5.63;2.25;;;1.70;95.60;;;;;;5046891;28;20033;-79
2024/01/30 06:02:31;;;;;;;6.60;2.17;;;1.80;95.30;;;;;;5048770;28;20497;-78
2024/01/30 06:04:56;;;;;;;4.90;2.65;;;1.60;95.70;;;;;;5048806;28;20029;-78
2024/01/30 06:07:22;;;;;;;6.50;2.65;;;1.40;95.80;;;;;;5049161;28;20059;-78
2024/01/30 06:09:48;;;;;;;6.15;2.40;;;1.40;95.90;;;;;;5050148;28;20060;-78
2024/01/30 06:12:13;;;;;;;5.00;2.20;;;1.30;95.90;;;;;;5045726;28;20037;-78
2024/01/30 06:14:42;;;;;;;4.97;2.42;;;1.40;95.90;;;;;;5046707;28;20048;-78
2024/01/30 06:17:08;;;;;;;4.70;2.13;;;1.30;96.10;;;;;;5047012;28;20044;-78
2024/01/30 06:19:33;;;;;;;6.70;2.08;;;1.40;96.10;;;;;;5049235;28;20445;-78
2024/01/30 06:21:59;;;;;;;3.90;1.75;;;1.50;96.00;;;;;;5049667;28;20059;-78
2024/01/30 06:24:25;;;;;;;4.43;2.17;;;1.40;96.10;;;;;;5048610;28;20047;-78
2024/01/30 06:26:51;;;;;;;4.28;2.03;;;1.40;96.40;;;;;;5048210;28;20033;-78
2024/01/30 06:29:16;;;;;;;7.07;2.38;;;1.50;96.10;;;;;;5049643;28;20514;-78
2024/01/30 06:31:42;;;;;;;6.00;2.53;;;1.50;96.20;;;;;;5047401;28;20036;-78
2024/01/30 06:34:11;;;;;;;6.03;2.60;;;1.40;96.40;;;;;;5044891;28;20037;-78
2024/01/30 06:36:37;;;;;;;5.10;2.45;;;1.50;96.20;;;;;;5046965;28;20029;-78
2024/01/30 06:39:03;;;;;;;7.70;2.67;;;1.50;96.20;;;;;;5044810;28;20037;-78
2024/01/30 06:41:29;;;;;;;5.78;2.53;;;1.60;95.60;;;;;;5045336;28;20047;-78
2024/01/30 06:43:55;;;;;;;5.13;2.20;;;1.80;95.50;;;;;;5044018;28;20032;-78
2024/01/30 06:46:21;;;;;;;13.65;5.95;;;1.70;95.60;;;;;;5045958;28;20538;-79
2024/01/30 06:48:47;;;;;;;20.15;9.75;;;1.60;95.60;;;;;;5046241;28;20025;-78
2024/01/30 06:51:13;;;;;;;8.32;4.38;;;1.60;95.40;;;;;;5048108;28;20041;-77
2024/01/30 06:53:38;;;;;;;5.63;2.83;;;1.50;95.80;;;;;;5050219;28;20040;-78
2024/01/30 06:56:05;;;;;;;4.55;2.22;;;1.60;95.90;;;;;;5044936;28;20079;-78
2024/01/30 06:58:30;;;;;;;278.08;164.68;;;1.60;95.80;;;;;;5044594;28;20040;-76
2024/01/30 07:00:56;;;;;;;49.00;33.17;;;1.60;95.90;;;;;;5046352;28;20029;-77
2024/01/30 07:03:22;;;;;;;25.45;16.73;;;1.70;95.70;;;;;;5045130;28;20032;-76
2024/01/30 07:05:48;;;;;;;19.50;10.52;;;1.70;96.10;;;;;;5060881;28;20050;-75
2024/01/30 07:08:17;;;;;;;15.43;7.78;;;1.90;95.80;;;;;;5050858;28;20048;-77
2024/01/30 07:10:43;;;;;;;15.65;9.50;;;1.90;95.50;;;;;;5050040;28;20033;-77
2024/01/30 07:13:10;;;;;;;12.07;8.32;;;1.80;95.80;;;;;;5052142;28;20033;-75
2024/01/30 07:15:36;;;;;;;23.58;13.98;;;1.70;95.80;;;;;;5056088;28;20033;-75
2024/01/30 07:18:02;;;;;;;28.95;17.35;;;1.60;96.10;;;;;;5034264;28;20433;-75
2024/01/30 07:20:30;;;;;;;20.20;11.70;;;1.50;96.20;;;;;;5049202;28;20090;-75
2024/01/30 07:22:56;;;;;;;12.00;6.15;;;1.40;96.50;;;;;;5049039;28;20135;-75
2024/01/30 07:25:26;;;;;;;6.55;3.83;;;1.30;96.80;;;;;;5048573;28;20033;-76
2024/01/30 07:27:55;;;;;;;5.32;2.80;;;1.40;96.80;;;;;;5052018;28;20521;-75
2024/01/30 07:30:21;;;;;;;5.45;2.88;;;1.30;96.80;;;;;;5050397;28;20762;-75
2024/01/30 07:32:47;;;;;;;5.70;2.80;;;1.20;97.00;;;;;;5047384;28;20054;-75
2024/01/30 07:35:13;;;;;;;6.43;2.85;;;1.30;96.80;;;;;;5047639;28;20032;-76
2024/01/30 07:37:39;;;;;;;8.35;2.45;;;1.60;97.60;;;;;;5047616;28;20527;-74
2024/01/30 07:40:06;;;;;;;6.50;2.40;;;1.60;96.50;;;;;;5049181;28;20048;-77
2024/01/30 07:42:32;;;;;;;8.43;3.75;;;1.60;96.50;;;;;;5047311;28;20048;-78
2024/01/30 07:44:58;;;;;;;9.25;5.18;;;1.60;96.90;;;;;;5048481;28;20065;-78
2024/01/30 07:47:24;;;;;;;8.52;4.10;;;1.60;97.30;;;;;;5049717;28;20121;-78
2024/01/30 07:49:49;;;;;;;6.20;3.10;;;1.50;97.20;;;;;;5048731;28;20036;-77
2024/01/30 07:52:15;;;;;;;7.05;3.33;;;1.50;97.20;;;;;;5048956;28;20154;-78
2024/01/30 07:54:51;;;;;;;9.27;5.22;;;1.50;96.50;;;;;;5049519;28;20041;-78
2024/01/30 07:57:17;;;;;;;7.60;3.20;;;1.50;96.70;;;;;;5048594;28;20031;-78
2024/01/30 07:59:44;;;;;;;6.28;2.83;;;1.50;97.20;;;;;;5049384;28;20044;-77
2024/01/30 08:02:10;;;;;;;13.93;7.78;;;1.50;97.10;;;;;;5050709;28;20052;-78
2024/01/30 08:04:36;;;;;;;9.15;4.78;;;1.60;97.00;;;;;;5051691;28;20303;-77
2024/01/30 08:07:01;;;;;;;16.63;10.45;;;1.60;96.60;;;;;;5052765;28;20579;-77
2024/01/30 08:09:27;;;;;;;25.67;13.40;;;1.50;97.10;;;;;;5051574;28;20057;-74
2024/01/30 08:11:53;;;;;;;12.32;6.85;;;1.60;96.80;;;;;;5050677;28;20032;-76
2024/01/30 08:14:19;;;;;;;30.17;15.90;;;2.00;97.30;;;;;;5052757;28;20036;-77
2024/01/30 08:16:44;;;;;;;11.15;5.20;;;1.90;96.50;;;;;;5051321;28;20072;-76
2024/01/30 08:19:10;;;;;;;15.02;7.78;;;1.90;96.40;;;;;;5051202;28;20024;-75
2024/01/30 08:21:36;;;;;;;16.45;7.97;;;1.90;97.20;;;;;;5051987;28;20037;-77
2024/01/30 08:24:05;;;;;;;32.78;17.20;;;1.80;97.00;;;;;;5051082;28;20036;-77
2024/01/30 08:26:35;;;;;;;36.75;20.08;;;1.90;97.10;;;;;;5050846;28;20108;-81
2024/01/30 08:29:01;;;;;;;27.15;13.40;;;1.80;97.50;;;;;;5052056;28;20108;-79
2024/01/30 08:31:27;;;;;;;22.38;11.45;;;1.90;97.10;;;;;;5051668;28;20462;-78
2024/01/30 08:33:53;;;;;;;15.52;7.45;;;1.70;97.30;;;;;;5051130;28;20063;-77
2024/01/30 08:36:20;;;;;;;17.58;6.95;;;1.70;97.40;;;;;;5053050;28;20452;-78
2024/01/30 08:38:46;;;;;;;11.20;5.03;;;2.10;98.20;;;;;;5051056;28;20137;-78
2024/01/30 08:41:12;;;;;;;8.60;4.30;;;2.00;97.50;;;;;;5048941;28;20049;-78
2024/01/30 08:43:38;;;;;;;12.77;3.90;;;1.90;97.50;;;;;;5050794;28;20058;-78
2024/01/30 08:46:03;;;;;;;13.48;3.97;;;1.90;98.20;;;;;;5050081;28;20040;-78
2024/01/30 08:48:29;;;;;;;8.15;3.40;;;1.80;97.60;;;;;;5048045;28;20039;-77
2024/01/30 08:50:55;;;;;;;6.07;3.08;;;1.80;97.70;;;;;;5048849;28;20102;-77
2024/01/30 08:53:21;;;;;;;7.20;3.28;;;1.70;97.50;;;;;;5048893;28;20032;-78
2024/01/30 08:55:46;;;;;;;7.18;2.90;;;1.80;97.20;;;;;;5050294;28;20039;-80
2024/01/30 08:58:12;;;;;;;5.35;2.83;;;1.90;96.90;;;;;;5048816;28;20097;-79
2024/01/30 09:00:38;;;;;;;4.85;2.72;;;1.90;96.90;;;;;;5049579;28;20039;-79
2024/01/30 09:03:04;;;;;;;6.47;2.95;;;2.00;96.90;;;;;;5049271;28;20040;-79
2024/01/30 09:05:29;;;;;;;5.28;2.58;;;2.00;96.60;;;;;;5050149;28;20501;-78
2024/01/30 09:07:55;;;;;;;5.97;3.28;;;2.00;96.60;;;;;;5049776;28;20032;-77
2024/01/30 09:10:21;;;;;;;7.25;2.45;;;2.10;96.90;;;;;;5050214;28;20051;-78
2024/01/30 09:12:48;;;;;;;6.78;3.10;;;2.20;96.50;;;;;;5050199;28;20621;-78
2024/01/30 09:15:14;;;;;;;6.22;2.88;;;2.20;96.50;;;;;;5047975;28;20639;-80
2024/01/30 09:17:39;;;;;;;5.78;2.60;;;2.20;96.40;;;;;;5048684;28;20040;-78
2024/01/30 09:20:06;;;;;;;6.78;2.53;;;2.30;96.40;;;;;;5047773;28;20032;-77
2024/01/30 09:22:31;;;;;;;6.35;2.65;;;2.30;96.00;;;;;;5045647;28;20044;-78
2024/01/30 09:24:57;;;;;;;6.88;3.55;;;2.30;95.90;;;;;;5048351;28;20059;-79
2024/01/30 09:27:23;;;;;;;8.55;4.72;;;2.30;96.00;;;;;;5042834;28;20041;-78
2024/01/30 09:29:49;;;;;;;9.15;4.60;;;2.60;98.00;;;;;;5049027;28;20036;-79
2024/01/30 09:32:15;;;;;;;5.95;3.70;;;2.50;97.10;;;;;;5050900;28;20033;-78
2024/01/30 09:34:41;;;;;;;8.80;3.63;;;2.40;96.40;;;;;;5049642;28;20143;-76
2024/01/30 09:37:07;;;;;;;6.70;3.78;;;2.50;96.30;;;;;;5050148;28;20052;-78
2024/01/30 09:39:33;;;;;;;6.60;2.85;;;2.40;96.30;;;;;;5051847;28;20040;-78
2024/01/30 09:42:37;;;;;;;9.95;2.90;;;2.30;96.40;;;;;;5049812;28;21142;-78
2024/01/30 09:45:04;;;;;;;5.43;2.67;;;2.40;96.10;;;;;;5007693;28;20041;-78
2024/01/30 09:47:44;;;;;;;6.72;3.05;;;2.60;95.90;;;;;;5042212;28;21056;-78
2024/01/30 09:50:12;;;;;;;7.88;3.33;;;2.60;96.00;;;;;;5049973;28;20029;-78
2024/01/30 09:52:38;;;;;;;4.72;2.83;;;2.70;96.40;;;;;;5046882;28;20506;-78
2024/01/30 09:55:06;;;;;;;5.97;3.83;;;2.60;96.50;;;;;;5048254;28;20042;-78
2024/01/30 09:57:32;;;;;;;8.77;4.00;;;2.70;96.20;;;;;;5049513;28;20119;-78
2024/01/30 09:59:58;;;;;;;9.13;3.83;;;2.70;96.20;;;;;;5050928;28;20040;-78
2024/01/30 10:02:23;;;;;;;6.50;3.33;;;2.70;96.50;;;;;;5050283;28;20041;-78
2024/01/30 10:04:52;;;;;;;6.10;3.35;;;2.70;96.00;;;;;;5049685;28;20501;-78
2024/01/30 10:07:19;;;;;;;4.20;2.60;;;2.70;95.60;;;;;;5051427;28;20040;-78
2024/01/30 10:09:45;;;;;;;6.07;3.78;;;2.90;95.60;;;;;;5050400;28;20076;-78
2024/01/30 10:12:11;;;;;;;12.15;6.70;;;3.00;95.70;;;;;;5049257;28;20036;-78
2024/01/30 10:14:41;;;;;;;7.45;3.92;;;3.20;95.80;;;;;;5050612;28;20045;-78
2024/01/30 10:17:11;;;;;;;6.47;3.53;;;3.30;95.50;;;;;;5050646;28;20127;-78
2024/01/30 10:19:41;;;;;;;6.38;2.72;;;3.40;95.30;;;;;;5049667;28;20086;-79
2024/01/30 10:22:09;;;;;;;6.60;3.10;;;3.60;94.90;;;;;;5049769;28;20052;-78
2024/01/30 10:24:35;;;;;;;10.15;3.25;;;3.70;95.10;;;;;;5050442;28;20051;-79
2024/01/30 10:27:01;;;;;;;5.03;2.70;;;3.70;95.30;;;;;;5049573;28;21672;-79
2024/01/30 10:29:28;;;;;;;4.65;2.72;;;3.70;95.90;;;;;;5046222;28;20033;-78
2024/01/30 10:32:05;;;;;;;6.07;2.85;;;3.70;95.40;;;;;;5049142;28;20106;-79
2024/01/30 10:34:30;;;;;;;7.60;2.97;;;3.80;95.00;;;;;;5051171;28;20075;-78
2024/01/30 10:37:18;;;;;;;6.28;3.13;;;3.90;95.00;;;;;;5053215;28;20116;-79
2024/01/30 10:39:45;;;;;;;6.80;3.55;;;3.90;95.10;;;;;;5052416;28;20044;-78
2024/01/30 10:42:18;;;;;;;8.20;3.80;;;4.00;95.70;;;;;;5053555;28;20170;-78
2024/01/30 10:44:52;;;;;;;8.55;4.32;;;4.10;95.80;;;;;;5054098;28;20066;-78
2024/01/30 10:47:23;;;;;;;10.57;5.00;;;4.10;95.70;;;;;;5054152;28;20064;-77
2024/01/30 10:49:51;;;;;;;8.38;4.40;;;4.20;95.80;;;;;;5053051;28;20094;-78
2024/01/30 10:52:18;;;;;;;9.07;4.18;;;4.20;96.00;;;;;;5053154;28;20102;-78
2024/01/30 10:54:45;;;;;;;9.77;5.05;;;4.30;95.90;;;;;;5054277;28;20040;-79
2024/01/30 10:57:12;;;;;;;7.78;4.18;;;4.40;95.80;;;;;;5034259;28;20169;-78
2024/01/30 10:59:38;;;;;;;8.75;4.25;;;4.40;96.10;;;;;;5052716;28;20489;-78
2024/01/30 11:02:06;;;;;;;8.07;4.32;;;4.40;95.10;;;;;;5053724;28;20047;-78
2024/01/30 11:04:38;;;;;;;8.07;4.57;;;4.60;95.20;;;;;;5052785;28;20622;-78
2024/01/30 11:07:17;;;;;;;8.75;4.07;;;4.90;95.10;;;;;;5052633;28;20115;-78
2024/01/30 11:09:50;;;;;;;8.88;3.85;;;4.90;94.70;;;;;;5053837;28;20056;-77
2024/01/30 11:12:16;;;;;;;10.02;4.00;;;4.90;94.60;;;;;;5053464;28;21331;-77
2024/01/30 11:14:43;;;;;;;6.65;3.58;;;5.00;94.40;;;;;;5047633;28;20032;-77
2024/01/30 11:17:12;;;;;;;7.35;3.97;;;5.10;94.40;;;;;;5051969;28;20040;-77
2024/01/30 11:19:38;;;;;;;7.70;3.47;;;5.30;94.30;;;;;;5053330;28;20028;-77
2024/01/30 11:22:06;;;;;;;6.57;3.67;;;5.40;94.00;;;;;;5050889;28;20047;-77
2024/01/30 11:24:42;;;;;;;7.00;2.92;;;5.40;94.00;;;;;;5051239;28;20032;-77
2024/01/30 11:27:10;;;;;;;7.22;3.55;;;5.40;93.70;;;;;;5053490;28;20035;-77
2024/01/30 11:29:36;;;;;;;7.57;3.78;;;5.40;93.90;;;;;;5052171;28;20048;-76
2024/01/30 11:32:02;;;;;;;10.68;3.88;;;5.70;94.10;;;;;;5052838;28;20040;-76
2024/01/30 11:34:28;;;;;;;7.03;4.05;;;5.80;93.90;;;;;;5053163;28;20024;-76
2024/01/30 11:36:59;;;;;;;10.10;4.03;;;5.70;93.50;;;;;;5051893;28;20039;-77
2024/01/30 11:39:29;;;;;;;6.72;3.63;;;5.90;94.00;;;;;;5051694;28;20044;-77
2024/01/30 11:41:55;;;;;;;6.05;3.60;;;6.20;93.70;;;;;;5052231;28;20048;-79
2024/01/30 11:44:22;;;;;;;12.98;4.18;;;6.30;93.30;;;;;;5051922;28;20098;-80
2024/01/30 11:46:48;;;;;;;9.27;4.30;;;6.40;93.40;;;;;;5051139;28;20028;-80
2024/01/30 11:49:14;;;;;;;10.93;4.22;;;6.60;93.20;;;;;;5052840;28;20047;-79
2024/01/30 11:51:40;;;;;;;8.18;4.72;;;6.70;93.10;;;;;;5050799;28;20374;-79
2024/01/30 11:54:07;;;;;;;9.38;4.00;;;6.50;92.70;;;;;;5053013;28;20942;-79
2024/01/30 11:56:33;;;;;;;7.95;4.38;;;6.50;92.80;;;;;;5051439;28;20056;-79
2024/01/30 11:59:00;;;;;;;8.23;4.07;;;6.60;93.20;;;;;;5053072;28;20139;-79
2024/01/30 12:01:26;;;;;;;7.78;4.38;;;6.60;92.70;;;;;;5051794;28;20514;-79
2024/01/30 12:03:52;;;;;;;14.00;4.43;;;6.80;92.90;;;;;;5052109;28;20040;-79
2024/01/30 12:06:18;;;;;;;6.07;3.65;;;6.90;92.50;;;;;;5052699;28;20363;-80
2024/01/30 12:08:58;;;;;;;7.22;3.47;;;7.00;92.50;;;;;;5052396;28;20052;-79
2024/01/30 12:11:24;;;;;;;12.45;3.92;;;7.00;92.50;;;;;;5050995;28;20551;-79
2024/01/30 12:13:52;;;;;;;38.70;21.65;;;7.00;91.90;;;;;;5051925;28;20036;-79
2024/01/30 12:16:18;;;;;;;27.05;15.05;;;7.10;92.10;;;;;;5052566;28;20035;-79
2024/01/30 12:18:44;;;;;;;32.50;21.02;;;7.30;92.10;;;;;;5051528;28;20037;-79
2024/01/30 12:21:09;;;;;;;20.23;12.38;;;7.30;91.80;;;;;;5051720;28;20094;-79
2024/01/30 12:23:35;;;;;;;9.88;5.28;;;7.40;91.50;;;;;;5053211;28;20085;-79
2024/01/30 12:26:03;;;;;;;6.97;3.70;;;7.30;90.90;;;;;;5052279;28;20025;-77
2024/01/30 12:28:29;;;;;;;5.10;2.92;;;7.50;91.90;;;;;;5051775;28;20036;-77
2024/01/30 12:31:02;;;;;;;4.85;2.67;;;7.50;91.40;;;;;;5051019;28;20060;-77
2024/01/30 12:33:29;;;;;;;6.80;2.70;;;7.30;91.10;;;;;;5052765;28;20482;-76
2024/01/30 12:35:54;;;;;;;4.60;2.35;;;7.10;90.70;;;;;;5051814;28;20033;-76
2024/01/30 12:38:20;;;;;;;5.78;2.65;;;7.20;90.80;;;;;;5051229;28;20474;-76
2024/01/30 12:40:46;;;;;;;5.13;2.65;;;7.30;91.10;;;;;;5051986;28;20032;-77
2024/01/30 12:43:14;;;;;;;4.40;2.15;;;7.30;90.80;;;;;;5051139;28;20555;-77
2024/01/30 12:45:41;;;;;;;10.07;4.63;;;7.30;90.60;;;;;;5047400;28;20687;-77
2024/01/30 12:48:06;;;;;;;7.22;3.10;;;7.50;90.70;;;;;;5048554;28;20036;-77
2024/01/30 12:50:32;;;;;;;12.85;7.38;;;7.70;91.10;;;;;;5030789;28;20068;-77
2024/01/30 12:52:58;;;;;;;7.32;5.70;;;7.80;90.10;;;;;;5029660;28;20185;-77